Time;durP1;ratioP1;P1;durP2;ratioP2;P2;SDS_P1;SDS_P2;PMS_P1;PMS_P2;Temp;Humidity;BMP_temperature;BMP_pressure;BME280_temperature;BME280_humidity;BME280_pressure;Samples;Min_cycle;Max_cycle;Signal;HPM_P1;HPM_P2
2023/04/13 00:02:21;;;;;;;;;;;8.70;93.10;;;;;;5104643;28;19919;-66
2023/04/13 00:04:49;;;;;;;;;;;8.60;93.10;;;;;;5108321;28;19919;-66
2023/04/13 00:07:15;;;;;;;;;;;8.60;93.10;;;;;;5107933;28;19912;-66
2023/04/13 00:09:41;;;;;;;;;;;8.60;93.00;;;;;;5108594;28;19923;-67
2023/04/13 00:12:09;;;;;;;;;;;8.60;93.00;;;;;;5108131;28;19912;-66
2023/04/13 00:14:35;;;;;;;;;;;8.60;93.10;;;;;;5108179;28;19959;-66
2023/04/13 00:17:01;;;;;;;;;;;8.60;93.10;;;;;;5106954;28;19974;-67
2023/04/13 00:19:27;;;;;;;;;;;8.60;93.00;;;;;;5108080;28;19927;-67
2023/04/13 00:21:53;;;;;;;;;;;8.60;93.00;;;;;;5108712;28;20264;-66
2023/04/13 00:24:19;;;;;;;;;;;8.60;93.00;;;;;;5112108;28;19912;-67
2023/04/13 00:26:45;;;;;;;;;;;8.60;92.90;;;;;;5112206;28;19912;-67
2023/04/13 00:29:10;;;;;;;;;;;8.60;92.90;;;;;;5111022;28;20331;-66
2023/04/13 00:31:36;;;;;;;;;;;8.60;92.90;;;;;;5112029;28;19998;-67
2023/04/13 00:34:02;;;;;;;;;;;8.60;92.90;;;;;;5111496;28;19994;-67
2023/04/13 00:36:28;;;;;;;;;;;8.60;92.80;;;;;;5112004;27;20010;-66
2023/04/13 00:38:56;;;;;;;;;;;8.60;92.90;;;;;;5111945;28;19912;-67
2023/04/13 00:41:25;;;;;;;;;;;8.60;92.80;;;;;;5111947;28;19919;-66
2023/04/13 00:43:51;;;;;;;;;;;8.60;92.80;;;;;;5111514;28;19911;-66
2023/04/13 00:46:19;;;;;;;;;;;8.50;92.90;;;;;;5111628;28;19916;-67
2023/04/13 00:48:47;;;;;;;;;;;8.50;92.80;;;;;;5111577;28;19911;-67
2023/04/13 00:51:14;;;;;;;;;;;8.50;92.90;;;;;;5111716;27;19919;-67
2023/04/13 00:53:43;;;;;;;;;;;8.50;92.70;;;;;;5110899;28;19921;-67
2023/04/13 00:56:08;;;;;;;;;;;8.60;92.90;;;;;;5111781;28;19955;-66
2023/04/13 00:58:34;;;;;;;;;;;8.50;92.80;;;;;;5111757;28;19954;-67
2023/04/13 01:01:00;;;;;;;;;;;8.50;92.90;;;;;;5109905;28;19934;-67
2023/04/13 01:03:26;;;;;;;;;;;8.50;92.90;;;;;;5110804;28;19911;-67
2023/04/13 01:05:54;;;;;;;;;;;8.50;92.80;;;;;;5111426;28;19947;-66
2023/04/13 01:08:30;;;;;;;;;;;8.50;92.90;;;;;;5111491;28;19958;-66
2023/04/13 01:11:02;;;;;;;;;;;8.50;93.00;;;;;;5111450;28;20022;-66
2023/04/13 01:13:33;;;;;;;;;;;8.50;92.90;;;;;;5111278;28;20263;-66
2023/04/13 01:16:00;;;;;;;;;;;8.50;92.90;;;;;;5111570;28;20520;-67
2023/04/13 01:18:26;;;;;;;;;;;8.50;93.00;;;;;;5110989;28;19912;-67
2023/04/13 01:20:52;;;;;;;;;;;8.50;93.10;;;;;;5110175;28;19972;-67
2023/04/13 01:23:28;;;;;;;;;;;8.50;93.10;;;;;;5111113;27;20047;-66
2023/04/13 01:25:56;;;;;;;;;;;8.50;93.00;;;;;;5111292;28;19908;-67
2023/04/13 01:28:22;;;;;;;;;;;8.50;93.10;;;;;;5110695;28;20441;-67
2023/04/13 01:30:52;;;;;;;;;;;8.40;93.00;;;;;;5111045;28;19916;-67
2023/04/13 01:33:18;;;;;;;;;;;8.40;93.00;;;;;;5110228;28;19936;-67
2023/04/13 01:35:44;;;;;;;;;;;8.50;93.10;;;;;;5110838;28;19916;-67
2023/04/13 01:38:11;;;;;;;;;;;8.40;93.10;;;;;;5110745;28;19912;-67
2023/04/13 01:40:40;;;;;;;;;;;8.50;93.20;;;;;;5110780;28;19912;-67
2023/04/13 01:43:06;;;;;;;;;;;8.50;93.20;;;;;;5110726;28;20319;-67
2023/04/13 01:45:46;;;;;;;;;;;8.40;93.10;;;;;;5110874;28;19934;-67
2023/04/13 01:48:11;;;;;;;;;;;8.40;93.30;;;;;;5110798;27;20378;-67
2023/04/13 01:50:39;;;;;;;;;;;8.50;93.20;;;;;;5110645;28;19949;-67
2023/04/13 01:53:10;;;;;;;;;;;8.40;93.10;;;;;;5110444;28;19915;-66
2023/04/13 01:55:38;;;;;;;;;;;8.50;93.20;;;;;;5110664;28;19916;-66
2023/04/13 01:58:05;;;;;;;;;;;8.50;93.20;;;;;;5110225;28;19912;-67
2023/04/13 02:00:35;;;;;;;;;;;8.40;93.20;;;;;;5092002;28;19930;-67
2023/04/13 02:03:06;;;;;;;;;;;8.40;93.20;;;;;;5109451;27;20565;-67
2023/04/13 02:05:32;;;;;;;;;;;8.40;93.20;;;;;;5110559;28;19943;-67
2023/04/13 02:07:58;;;;;;;;;;;8.40;93.20;;;;;;5110357;28;20387;-67
2023/04/13 02:10:23;;;;;;;;;;;8.40;93.10;;;;;;5110623;28;19939;-67
2023/04/13 02:12:49;;;;;;;;;;;8.40;93.20;;;;;;5110107;28;19916;-67
2023/04/13 02:15:14;;;;;;;;;;;8.40;93.20;;;;;;5110187;28;20010;-67
2023/04/13 02:17:40;;;;;;;;;;;8.40;93.30;;;;;;5110151;28;19924;-67
2023/04/13 02:20:10;;;;;;;;;;;8.40;93.20;;;;;;5110068;28;20613;-66
2023/04/13 02:22:35;;;;;;;;;;;8.40;93.40;;;;;;5109814;28;19919;-66
2023/04/13 02:25:01;;;;;;;;;;;8.40;93.30;;;;;;5110129;28;19912;-67
2023/04/13 02:27:27;;;;;;;;;;;8.40;93.20;;;;;;5110161;28;20280;-67
2023/04/13 02:29:54;;;;;;;;;;;8.40;93.30;;;;;;5103241;28;20007;-67
2023/04/13 02:32:19;;;;;;;;;;;8.40;93.30;;;;;;5107210;28;20028;-67
2023/04/13 02:34:46;;;;;;;;;;;8.40;93.30;;;;;;5109948;28;20420;-67
2023/04/13 02:37:12;;;;;;;;;;;8.30;93.30;;;;;;5109489;28;19912;-67
2023/04/13 02:39:37;;;;;;;;;;;8.40;93.20;;;;;;5110098;28;19908;-66
2023/04/13 02:42:04;;;;;;;;;;;8.40;93.30;;;;;;5142295;27;19994;-67
2023/04/13 02:44:29;;;;;;;;;;;8.30;93.50;;;;;;5107716;28;19966;-67
2023/04/13 02:46:55;;;;;;;;;;;8.30;93.20;;;;;;5109828;28;20361;-67
2023/04/13 02:49:21;;;;;;;;;;;8.30;93.30;;;;;;5108916;28;19918;-67
2023/04/13 02:51:46;;;;;;;;;;;8.30;93.20;;;;;;5109444;28;19911;-67
2023/04/13 02:54:12;;;;;;;;;;;8.30;93.20;;;;;;5109486;28;19908;-67
2023/04/13 02:56:38;;;;;;;;;;;8.30;93.30;;;;;;5109738;28;19907;-67
2023/04/13 02:59:03;;;;;;;;;;;8.30;93.30;;;;;;5109339;28;19911;-67
2023/04/13 03:01:29;;;;;;;;;;;8.30;93.30;;;;;;5103003;28;19912;-69
2023/04/13 03:03:55;;;;;;;;;;;8.30;93.30;;;;;;5108953;28;19908;-67
2023/04/13 03:06:23;;;;;;;;;;;8.30;93.40;;;;;;5109303;28;20004;-67
2023/04/13 03:08:50;;;;;;;;;;;8.20;93.30;;;;;;5108843;28;19911;-67
2023/04/13 03:11:16;;;;;;;;;;;8.20;93.30;;;;;;5109317;28;19975;-67
2023/04/13 03:13:42;;;;;;;;;;;8.20;93.40;;;;;;5108844;27;19922;-67
2023/04/13 03:16:10;;;;;;;;;;;8.30;93.40;;;;;;5108191;28;19912;-67
2023/04/13 03:18:36;;;;;;;;;;;8.20;93.30;;;;;;5110066;27;19916;-67
2023/04/13 03:21:04;;;;;;;;;;;8.20;93.30;;;;;;5098007;28;20002;-67
2023/04/13 03:23:30;;;;;;;;;;;8.20;93.30;;;;;;5108451;28;20333;-67
2023/04/13 03:25:55;;;;;;;;;;;8.20;93.40;;;;;;5108573;28;20006;-67
2023/04/13 03:28:21;;;;;;;;;;;8.20;93.40;;;;;;5108627;28;19961;-67
2023/04/13 03:30:46;;;;;;;;;;;8.20;93.40;;;;;;5108695;28;20324;-67
2023/04/13 03:33:12;;;;;;;;;;;8.20;93.80;;;;;;5108301;28;19912;-67
2023/04/13 03:35:37;;;;;;;;;;;8.20;93.50;;;;;;5095660;28;20289;-67
2023/04/13 03:38:03;;;;;;;;;;;8.20;93.40;;;;;;5086767;28;19915;-67
2023/04/13 03:40:28;;;;;;;;;;;8.20;93.60;;;;;;5093904;28;19978;-67
2023/04/13 03:42:54;;;;;;;;;;;8.20;93.50;;;;;;5108149;28;19912;-67
2023/04/13 03:45:20;;;;;;;;;;;8.20;93.50;;;;;;5108280;28;19918;-67
2023/04/13 03:47:45;;;;;;;;;;;8.20;93.50;;;;;;5108444;28;19918;-67
2023/04/13 03:50:11;;;;;;;;;;;8.20;93.50;;;;;;5106715;28;19919;-67
2023/04/13 03:52:36;;;;;;;;;;;8.20;93.60;;;;;;5108225;28;19995;-67
2023/04/13 03:55:02;;;;;;;;;;;8.20;93.50;;;;;;5108576;28;20241;-67
2023/04/13 03:57:28;;;;;;;;;;;8.20;93.50;;;;;;5108515;28;20271;-67
2023/04/13 03:59:54;;;;;;;;;;;8.20;93.50;;;;;;5107995;28;19924;-67
2023/04/13 04:02:20;;;;;;;;;;;8.20;93.50;;;;;;5108167;28;19908;-67
2023/04/13 04:04:46;;;;;;;;;;;8.20;93.50;;;;;;5108176;28;19911;-67
2023/04/13 04:07:12;;;;;;;;;;;8.20;93.60;;;;;;5108420;28;20372;-67
2023/04/13 04:09:38;;;;;;;;;;;8.20;93.60;;;;;;5108473;28;19956;-67
2023/04/13 04:12:03;;;;;;;;;;;8.20;93.50;;;;;;5107888;28;19912;-67
2023/04/13 04:14:29;;;;;;;;;;;8.20;93.50;;;;;;5107606;28;19919;-67
2023/04/13 04:16:54;;;;;;;;;;;8.20;93.60;;;;;;5108005;28;19912;-67
2023/04/13 04:19:20;;;;;;;;;;;8.20;93.50;;;;;;5108008;28;19920;-67
2023/04/13 04:21:45;;;;;;;;;;;8.10;93.50;;;;;;5107921;28;19911;-67
2023/04/13 04:24:19;;;;;;;;;;;8.20;93.50;;;;;;5108095;28;19912;-67
2023/04/13 04:26:48;;;;;;;;;;;8.20;93.50;;;;;;5108157;28;19912;-67
2023/04/13 04:29:20;;;;;;;;;;;8.20;93.60;;;;;;5107564;28;19965;-67
2023/04/13 04:31:51;;;;;;;;;;;8.10;93.50;;;;;;5108142;28;20391;-67
2023/04/13 04:34:17;;;;;;;;;;;8.20;93.80;;;;;;5106213;28;20424;-67
2023/04/13 04:36:49;;;;;;;;;;;8.10;93.50;;;;;;5086546;28;19951;-67
2023/04/13 04:39:21;;;;;;;;;;;8.10;93.60;;;;;;5087597;28;19919;-67
2023/04/13 04:41:53;;;;;;;;;;;8.20;93.60;;;;;;5103744;28;20568;-67
2023/04/13 04:44:29;;;;;;;;;;;8.20;93.60;;;;;;5106767;28;19912;-67
2023/04/13 04:46:55;;;;;;;;;;;8.20;93.70;;;;;;5107983;28;19953;-67
2023/04/13 04:49:21;;;;;;;;;;;8.20;93.60;;;;;;5107302;28;19912;-67
2023/04/13 04:51:50;;;;;;;;;;;8.20;93.60;;;;;;5107528;28;19973;-67
2023/04/13 04:54:17;;;;;;;;;;;8.10;93.80;;;;;;5107770;28;19915;-67
2023/04/13 04:56:43;;;;;;;;;;;8.10;93.70;;;;;;5107991;28;19919;-67
2023/04/13 04:59:09;;;;;;;;;;;8.10;93.70;;;;;;5107491;28;20309;-66
2023/04/13 05:01:34;;;;;;;;;;;8.10;93.80;;;;;;5100995;28;19920;-67
2023/04/13 05:04:00;;;;;;;;;;;8.10;93.60;;;;;;5106655;28;19916;-67
2023/04/13 05:06:26;;;;;;;;;;;8.20;93.70;;;;;;5107718;28;19935;-67
2023/04/13 05:08:52;;;;;;;;;;;8.20;93.70;;;;;;5110192;28;19918;-67
2023/04/13 05:11:17;;;;;;;;;;;8.20;93.80;;;;;;5111515;28;19949;-67
2023/04/13 05:13:43;;;;;;;;;;;8.20;93.80;;;;;;5111433;28;19912;-67
2023/04/13 05:16:09;;;;;;;;;;;8.10;93.70;;;;;;5111162;28;20696;-67
2023/04/13 05:18:42;;;;;;;;;;;8.10;93.80;;;;;;5111342;28;19912;-67
2023/04/13 05:21:08;;;;;;;;;;;8.20;93.80;;;;;;5109963;28;19969;-66
2023/04/13 05:23:33;;;;;;;;;;;8.10;93.80;;;;;;5109867;28;19912;-67
2023/04/13 05:25:59;;;;;;;;;;;8.10;93.90;;;;;;5111455;28;19915;-67
2023/04/13 05:28:27;;;;;;;;;;;8.10;93.80;;;;;;5110327;28;20072;-67
2023/04/13 05:30:52;;;;;;;;;;;8.10;93.80;;;;;;5110751;28;19927;-67
2023/04/13 05:33:19;;;;;;;;;;;8.20;93.80;;;;;;5110470;28;19918;-67
2023/04/13 05:35:45;;;;;;;;;;;8.10;93.70;;;;;;5107956;28;20384;-67
2023/04/13 05:38:10;;;;;;;;;;;8.20;93.80;;;;;;5110554;28;19969;-67
2023/04/13 05:40:36;;;;;;;;;;;8.20;93.80;;;;;;5110584;28;20027;-67
2023/04/13 05:43:01;;;;;;;;;;;8.20;93.70;;;;;;5110522;28;19977;-67
2023/04/13 05:45:27;;;;;;;;;;;8.20;93.80;;;;;;5111062;27;19916;-67
2023/04/13 05:47:53;;;;;;;;;;;8.20;93.80;;;;;;5110963;28;19908;-67
2023/04/13 05:50:18;;;;;;;;;;;8.20;93.80;;;;;;5110629;28;19918;-67
2023/04/13 05:52:44;;;;;;;;;;;8.20;93.80;;;;;;5110199;28;20357;-67
2023/04/13 05:55:10;;;;;;;;;;;8.20;93.80;;;;;;5110174;28;19920;-67
2023/04/13 05:57:36;;;;;;;;;;;8.20;93.80;;;;;;5108723;28;19953;-67
2023/04/13 06:00:02;;;;;;;;;;;8.20;94.10;;;;;;5108462;28;19919;-67
2023/04/13 06:02:27;;;;;;;;;;;8.20;93.90;;;;;;5108086;28;20295;-67
2023/04/13 06:04:53;;;;;;;;;;;8.20;93.90;;;;;;5110067;28;19908;-67
2023/04/13 06:07:19;;;;;;;;;;;8.20;93.70;;;;;;5108553;28;19920;-67
2023/04/13 06:09:45;;;;;;;;;;;8.30;93.80;;;;;;5110115;28;20320;-67
2023/04/13 06:12:10;;;;;;;;;;;8.30;93.70;;;;;;5109629;28;19918;-67
2023/04/13 06:14:36;;;;;;;;;;;8.30;93.70;;;;;;5110060;28;20034;-67
2023/04/13 06:17:01;;;;;;;;;;;8.40;93.70;;;;;;5110217;28;19911;-67
2023/04/13 06:19:27;;;;;;;;;;;8.40;93.70;;;;;;5109074;27;19994;-67
2023/04/13 06:21:53;;;;;;;;;;;8.40;93.70;;;;;;5109319;27;19938;-67
2023/04/13 06:24:18;;;;;;;;;;;8.40;93.70;;;;;;5109720;28;20645;-67
2023/04/13 06:26:44;;;;;;;;;;;8.40;93.90;;;;;;5109828;28;19982;-67
2023/04/13 06:29:10;;;;;;;;;;;8.50;93.70;;;;;;5109207;28;19920;-67
2023/04/13 06:31:35;;;;;;;;;;;8.50;93.90;;;;;;5109587;28;20387;-67
2023/04/13 06:34:01;;;;;;;;;;;8.50;93.70;;;;;;5107421;28;19912;-67
2023/04/13 06:36:27;;;;;;;;;;;8.60;93.60;;;;;;5108954;27;19920;-67
2023/04/13 06:38:53;;;;;;;;;;;8.60;93.60;;;;;;5109350;28;19995;-67
2023/04/13 06:41:18;;;;;;;;;;;8.60;93.60;;;;;;5108938;28;19916;-67
2023/04/13 06:43:44;;;;;;;;;;;8.60;93.60;;;;;;5109329;28;20420;-66
2023/04/13 06:46:11;;;;;;;;;;;8.60;93.60;;;;;;5108870;28;20586;-67
2023/04/13 06:48:36;;;;;;;;;;;8.70;93.60;;;;;;5109704;28;19908;-67
2023/04/13 06:51:02;;;;;;;;;;;8.70;93.60;;;;;;5109338;28;19912;-66
2023/04/13 06:53:27;;;;;;;;;;;8.70;93.70;;;;;;5109470;28;20002;-67
2023/04/13 06:55:53;;;;;;;;;;;8.70;93.70;;;;;;5109610;28;19955;-67
2023/04/13 06:58:19;;;;;;;;;;;8.80;93.50;;;;;;5109605;28;20645;-67
2023/04/13 07:00:45;;;;;;;;;;;8.80;93.50;;;;;;5107357;28;19916;-67
2023/04/13 07:03:10;;;;;;;;;;;8.80;94.00;;;;;;5108618;28;19912;-67
2023/04/13 07:05:36;;;;;;;;;;;8.80;93.60;;;;;;5108999;28;20496;-67
2023/04/13 07:08:01;;;;;;;;;;;8.80;93.60;;;;;;5109318;28;19951;-67
2023/04/13 07:10:27;;;;;;;;;;;8.90;93.50;;;;;;5109072;28;19973;-67
2023/04/13 07:12:52;;;;;;;;;;;9.00;93.40;;;;;;5105721;28;19911;-67
2023/04/13 07:15:18;;;;;;;;;;;9.00;93.50;;;;;;5108726;28;20284;-66
2023/04/13 07:17:44;;;;;;;;;;;9.00;93.50;;;;;;5109353;28;19912;-67
2023/04/13 07:20:10;;;;;;;;;;;9.00;93.50;;;;;;5108703;28;19919;-67
2023/04/13 07:22:37;;;;;;;;;;;9.10;93.50;;;;;;5108705;28;20002;-67
2023/04/13 07:25:02;;;;;;;;;;;9.10;93.30;;;;;;5109241;28;20340;-67
2023/04/13 07:27:28;;;;;;;;;;;9.10;93.20;;;;;;5108967;28;19939;-67
2023/04/13 07:29:54;;;;;;;;;;;9.20;93.20;;;;;;5108592;28;20002;-67
2023/04/13 07:32:19;;;;;;;;;;;9.20;93.30;;;;;;5108218;28;20027;-67
2023/04/13 07:34:45;;;;;;;;;;;9.20;93.20;;;;;;5102971;28;20364;-67
2023/04/13 07:37:11;;;;;;;;;;;9.30;93.20;;;;;;5090093;28;20287;-67
2023/04/13 07:39:36;;;;;;;;;;;9.30;93.10;;;;;;5108390;28;20448;-67
2023/04/13 07:42:02;;;;;;;;;;;9.40;93.10;;;;;;5107845;28;19908;-67
2023/04/13 07:44:27;;;;;;;;;;;9.40;93.10;;;;;;5107920;28;20003;-67
2023/04/13 07:46:53;;;;;;;;;;;9.50;93.00;;;;;;5107716;28;20356;-67
2023/04/13 07:49:19;;;;;;;;;;;9.60;93.10;;;;;;5106937;28;19922;-67
2023/04/13 07:51:44;;;;;;;;;;;9.60;92.80;;;;;;5108089;28;19924;-67
2023/04/13 07:54:10;;;;;;;;;;;9.70;93.20;;;;;;5107854;28;19919;-67
2023/04/13 07:56:36;;;;;;;;;;;9.70;92.90;;;;;;5107484;28;20640;-67
2023/04/13 07:59:01;;;;;;;;;;;9.70;92.70;;;;;;5107083;28;19955;-67
2023/04/13 08:01:27;;;;;;;;;;;9.80;92.80;;;;;;5105842;28;19912;-67
2023/04/13 08:03:52;;;;;;;;;;;9.80;92.70;;;;;;5107173;28;19914;-67
2023/04/13 08:06:22;;;;;;;;;;;9.80;92.60;;;;;;5089860;28;19912;-67
2023/04/13 08:08:47;;;;;;;;;;;9.80;92.60;;;;;;5087855;28;19912;-67
2023/04/13 08:11:13;;;;;;;;;;;9.80;92.60;;;;;;5087909;28;19908;-67
2023/04/13 08:13:39;;;;;;;;;;;9.80;92.70;;;;;;5087763;28;19970;-67
2023/04/13 08:16:05;;;;;;;;;;;9.80;92.70;;;;;;5087670;28;19923;-67
2023/04/13 08:18:31;;;;;;;;;;;9.80;92.70;;;;;;5087611;28;19916;-67
2023/04/13 08:20:57;;;;;;;;;;;9.80;92.80;;;;;;5086089;28;19920;-67
2023/04/13 08:23:23;;;;;;;;;;;9.80;92.80;;;;;;5087634;28;19912;-67
2023/04/13 08:25:49;;;;;;;;;;;9.80;92.80;;;;;;5087601;28;20053;-67
2023/04/13 08:28:14;;;;;;;;;;;9.70;92.80;;;;;;5087531;28;19912;-67
2023/04/13 08:30:40;;;;;;;;;;;9.70;92.80;;;;;;5100152;28;20433;-67
2023/04/13 08:33:06;;;;;;;;;;;9.80;92.90;;;;;;5107416;28;19915;-67
2023/04/13 08:35:32;;;;;;;;;;;9.80;92.90;;;;;;5103791;28;19920;-67
2023/04/13 08:37:57;;;;;;;;;;;9.80;92.90;;;;;;5107164;28;20614;-67
2023/04/13 08:40:23;;;;;;;;;;;9.70;92.90;;;;;;5104468;28;19911;-67
2023/04/13 08:42:48;;;;;;;;;;;9.80;92.90;;;;;;5108322;28;19991;-67
2023/04/13 08:45:14;;;;;;;;;;;9.70;92.90;;;;;;5107368;28;19912;-67
2023/04/13 08:47:40;;;;;;;;;;;9.70;93.00;;;;;;5111854;27;20014;-67
2023/04/13 08:50:07;;;;;;;;;;;9.70;93.00;;;;;;5109452;28;19919;-67
2023/04/13 08:52:34;;;;;;;;;;;9.70;93.00;;;;;;5111700;28;19968;-67
2023/04/13 08:55:01;;;;;;;;;;;9.70;93.10;;;;;;5111810;28;19915;-67
2023/04/13 08:57:28;;;;;;;;;;;9.60;93.00;;;;;;5144724;27;19991;-66
2023/04/13 08:59:54;;;;;;;;;;;9.60;93.00;;;;;;5108501;28;20010;-67
2023/04/13 09:02:25;;;;;;;;;;;9.60;93.10;;;;;;5107434;28;19965;-67
2023/04/13 09:04:55;;;;;;;;;;;9.60;93.10;;;;;;5111495;28;20376;-67
2023/04/13 09:07:25;;;;;;;;;;;9.60;93.10;;;;;;5111740;28;19999;-67
2023/04/13 09:09:55;;;;;;;;;;;9.60;93.10;;;;;;5112045;28;19930;-67
2023/04/13 09:12:20;;;;;;;;;;;9.60;93.10;;;;;;5111147;28;19929;-67
2023/04/13 09:14:46;;;;;;;;;;;9.60;93.10;;;;;;5111183;28;19916;-67
2023/04/13 09:17:33;;;;;;;;;;;9.60;93.10;;;;;;5106081;27;20329;-67
2023/04/13 09:20:21;;;;;;;;;;;9.70;93.10;;;;;;5095304;27;19916;-67
2023/04/13 09:22:50;;;;;;;;;;;9.60;93.00;;;;;;5101797;28;19919;-67
2023/04/13 09:25:34;;;;;;;;;;;9.70;93.10;;;;;;5111314;28;20353;-67
2023/04/13 09:27:59;;;;;;;;;;;9.70;93.10;;;;;;5090573;28;19919;-67
2023/04/13 09:30:26;;;;;;;;;;;9.70;93.10;;;;;;5105890;28;19912;-67
2023/04/13 09:33:03;;;;;;;;;;;9.70;93.10;;;;;;5109203;28;19912;-67
2023/04/13 09:35:29;;;;;;;;;;;9.70;93.10;;;;;;5109513;28;20099;-67
2023/04/13 09:37:55;;;;;;;;;;;9.70;93.10;;;;;;5107210;28;19919;-67
2023/04/13 09:40:21;;;;;;;;;;;9.70;93.20;;;;;;5094960;28;19912;-67
2023/04/13 09:43:00;;;;;;;;;;;9.70;93.20;;;;;;5110444;28;19951;-67
2023/04/13 09:45:35;;;;;;;;;;;9.70;93.20;;;;;;5110408;28;20380;-67
2023/04/13 09:48:02;;;;;;;;;;;9.80;93.20;;;;;;5109033;28;19911;-67
2023/04/13 09:50:27;;;;;;;;;;;9.80;93.20;;;;;;5110369;28;19911;-67
2023/04/13 09:53:03;;;;;;;;;;;9.90;93.20;;;;;;5110256;28;19931;-67
2023/04/13 09:55:28;;;;;;;;;;;9.90;93.10;;;;;;5110359;28;19918;-67
2023/04/13 09:57:54;;;;;;;;;;;10.00;93.00;;;;;;5110279;28;20309;-67
2023/04/13 10:00:20;;;;;;;;;;;10.10;92.90;;;;;;5103372;28;19982;-67
2023/04/13 10:02:50;;;;;;;;;;;10.10;92.90;;;;;;5089432;28;20361;-67
2023/04/13 10:05:16;;;;;;;;;;;10.20;92.80;;;;;;5099585;28;19918;-67
2023/04/13 10:07:43;;;;;;;;;;;10.30;93.00;;;;;;5110178;28;19919;-67
2023/04/13 10:10:09;;;;;;;;;;;10.30;93.00;;;;;;5110059;28;19919;-67
2023/04/13 10:12:37;;;;;;;;;;;10.40;92.60;;;;;;5109748;28;19920;-67
2023/04/13 10:15:22;;;;;;;;;;;10.40;92.70;;;;;;5109457;28;19969;-67
2023/04/13 10:17:48;;;;;;;;;;;10.40;92.70;;;;;;5109770;28;19988;-67
2023/04/13 10:20:14;;;;;;;;;;;10.40;92.80;;;;;;5110135;28;19929;-67
2023/04/13 10:22:41;;;;;;;;;;;10.40;92.90;;;;;;5108760;28;20280;-67
2023/04/13 10:25:11;;;;;;;;;;;10.40;92.90;;;;;;5102960;27;19962;-67
2023/04/13 10:27:36;;;;;;;;;;;10.40;92.90;;;;;;5109312;28;20324;-67
2023/04/13 10:30:15;;;;;;;;;;;10.40;92.90;;;;;;5109635;28;19965;-67
2023/04/13 10:32:41;;;;;;;;;;;10.40;93.20;;;;;;5108090;28;19908;-67
2023/04/13 10:35:07;;;;;;;;;;;10.40;92.90;;;;;;5108959;28;19969;-67
2023/04/13 10:37:33;;;;;;;;;;;10.40;92.90;;;;;;5109693;28;20006;-67
2023/04/13 10:40:09;;;;;;;;;;;10.50;92.80;;;;;;5109680;28;20011;-67
2023/04/13 10:42:41;;;;;;;;;;;10.50;92.80;;;;;;5108553;28;19916;-67
2023/04/13 10:45:25;;;;;;;;;;;10.50;92.80;;;;;;5109279;28;20564;-67
2023/04/13 10:47:54;;;;;;;;;;;10.50;92.80;;;;;;5109232;28;19916;-67
2023/04/13 10:50:23;;;;;;;;;;;10.50;92.80;;;;;;5107841;28;19911;-67
2023/04/13 10:52:57;;;;;;;;;;;10.50;92.90;;;;;;5107646;28;20269;-67
2023/04/13 10:55:26;;;;;;;;;;;10.50;92.90;;;;;;5109146;28;19946;-67
2023/04/13 10:57:53;;;;;;;;;;;10.50;92.90;;;;;;5109202;28;19998;-67
2023/04/13 11:00:20;;;;;;;;;;;10.50;92.90;;;;;;5102823;28;20363;-67
2023/04/13 11:02:48;;;;;;;;;;;10.50;92.90;;;;;;5108398;28;19952;-67
2023/04/13 11:05:15;;;;;;;;;;;10.60;92.90;;;;;;5106839;28;20698;-67
2023/04/13 11:07:44;;;;;;;;;;;10.60;92.80;;;;;;5108983;28;19912;-67
2023/04/13 11:10:09;;;;;;;;;;;10.70;92.80;;;;;;5109060;28;19999;-67
2023/04/13 11:12:35;;;;;;;;;;;10.80;92.60;;;;;;5108880;28;20014;-67
2023/04/13 11:15:01;;;;;;;;;;;10.80;92.50;;;;;;5107259;28;20279;-67
2023/04/13 11:17:26;;;;;;;;;;;10.90;92.50;;;;;;5108921;28;19911;-67
2023/04/13 11:19:52;;;;;;;;;;;10.90;92.30;;;;;;5108705;28;19919;-67
2023/04/13 11:22:21;;;;;;;;;;;11.10;92.20;;;;;;5107356;28;19916;-67
2023/04/13 11:24:47;;;;;;;;;;;11.20;92.20;;;;;;5108901;28;19982;-67
2023/04/13 11:27:16;;;;;;;;;;;11.20;92.00;;;;;;5107277;28;20618;-67
2023/04/13 11:29:41;;;;;;;;;;;11.30;92.00;;;;;;5099898;28;20057;-67
2023/04/13 11:32:14;;;;;;;;;;;11.30;91.90;;;;;;5108533;28;19939;-67
2023/04/13 11:34:40;;;;;;;;;;;11.30;91.90;;;;;;5108402;28;20701;-67
2023/04/13 11:37:06;;;;;;;;;;;11.30;92.00;;;;;;5108769;28;19912;-67
2023/04/13 11:39:33;;;;;;;;;;;11.30;92.00;;;;;;5108710;28;19908;-67
2023/04/13 11:42:03;;;;;;;;;;;11.30;92.10;;;;;;5108432;28;19938;-67
2023/04/13 11:44:28;;;;;;;;;;;11.30;92.10;;;;;;5108527;28;19911;-67
2023/04/13 11:46:55;;;;;;;;;;;11.20;92.30;;;;;;5108662;28;20365;-67
2023/04/13 11:49:21;;;;;;;;;;;11.20;92.20;;;;;;5108584;28;19912;-67
2023/04/13 11:51:47;;;;;;;;;;;11.20;92.40;;;;;;5108112;28;19943;-67
2023/04/13 11:54:13;;;;;;;;;;;11.20;92.40;;;;;;5108359;28;19943;-67
2023/04/13 11:56:38;;;;;;;;;;;11.10;92.50;;;;;;5108588;28;19965;-67
2023/04/13 11:59:07;;;;;;;;;;;11.10;92.40;;;;;;5108395;28;19923;-67
2023/04/13 12:01:32;;;;;;;;;;;11.20;92.70;;;;;;5106302;28;19934;-67
2023/04/13 12:04:03;;;;;;;;;;;11.20;92.30;;;;;;5107892;28;20357;-67
2023/04/13 12:06:31;;;;;;;;;;;11.20;92.30;;;;;;5108307;28;19972;-67
2023/04/13 12:08:57;;;;;;;;;;;11.30;92.20;;;;;;5108104;28;19918;-67
2023/04/13 12:11:24;;;;;;;;;;;11.20;91.90;;;;;;5108546;28;19951;-67
2023/04/13 12:13:52;;;;;;;;;;;11.30;92.10;;;;;;5106789;28;19912;-67
2023/04/13 12:16:28;;;;;;;;;;;11.30;91.80;;;;;;5107000;28;20385;-67
2023/04/13 12:18:54;;;;;;;;;;;11.30;91.90;;;;;;5110600;28;19912;-67
2023/04/13 12:21:20;;;;;;;;;;;11.40;91.70;;;;;;5111027;28;19912;-68
2023/04/13 12:23:56;;;;;;;;;;;11.50;91.90;;;;;;5111784;28;20018;-67
2023/04/13 12:26:24;;;;;;;;;;;11.50;91.70;;;;;;5112180;28;19919;-67
2023/04/13 12:28:53;;;;;;;;;;;11.60;91.60;;;;;;5110526;28;19919;-67
2023/04/13 12:31:19;;;;;;;;;;;11.60;91.60;;;;;;5112139;28;20139;-67
2023/04/13 12:33:44;;;;;;;;;;;11.70;91.50;;;;;;5112029;28;20015;-67
2023/04/13 12:36:10;;;;;;;;;;;11.70;91.40;;;;;;5111916;28;19920;-67
2023/04/13 12:38:36;;;;;;;;;;;11.80;91.30;;;;;;5111971;28;19907;-67
2023/04/13 12:41:01;;;;;;;;;;;11.90;91.20;;;;;;5110103;28;19916;-67
2023/04/13 12:43:27;;;;;;;;;;;11.90;91.10;;;;;;5110628;28;19915;-67
2023/04/13 12:45:52;;;;;;;;;;;12.00;91.10;;;;;;5104314;28;20354;-67
2023/04/13 12:48:18;;;;;;;;;;;12.00;91.00;;;;;;5103476;28;20693;-67
2023/04/13 12:50:44;;;;;;;;;;;12.00;90.90;;;;;;5104398;28;19987;-67
2023/04/13 12:53:11;;;;;;;;;;;12.10;90.80;;;;;;5093670;28;19920;-67
2023/04/13 12:55:36;;;;;;;;;;;12.20;90.90;;;;;;5111040;28;20394;-68
2023/04/13 12:58:02;;;;;;;;;;;12.30;90.80;;;;;;5111350;28;19950;-67
2023/04/13 13:00:27;;;;;;;;;;;12.40;90.60;;;;;;5109689;28;20448;-67
2023/04/13 13:02:53;;;;;;;;;;;12.40;90.50;;;;;;5109704;28;19965;-67
2023/04/13 13:05:19;;;;;;;;;;;12.50;90.70;;;;;;5110668;28;20048;-67
2023/04/13 13:07:44;;;;;;;;;;;12.60;90.60;;;;;;5111264;28;20641;-67
2023/04/13 13:10:10;;;;;;;;;;;12.60;90.30;;;;;;5111232;28;19920;-67
2023/04/13 13:12:36;;;;;;;;;;;12.70;90.70;;;;;;5109769;28;19915;-68
2023/04/13 13:15:04;;;;;;;;;;;12.60;90.60;;;;;;5111096;28;19916;-67
2023/04/13 13:17:30;;;;;;;;;;;12.60;90.50;;;;;;5111511;27;19918;-67
2023/04/13 13:19:56;;;;;;;;;;;12.70;90.70;;;;;;5110888;28;19919;-67
2023/04/13 13:22:21;;;;;;;;;;;12.70;90.70;;;;;;5109439;28;19916;-67
2023/04/13 13:24:47;;;;;;;;;;;12.70;90.70;;;;;;5111176;28;20003;-68
2023/04/13 13:27:13;;;;;;;;;;;12.70;90.70;;;;;;5110662;28;20688;-67
2023/04/13 13:29:38;;;;;;;;;;;12.60;90.80;;;;;;5108916;28;19915;-67
2023/04/13 13:32:04;;;;;;;;;;;12.70;90.50;;;;;;5108493;28;19912;-67
2023/04/13 13:34:30;;;;;;;;;;;12.70;90.50;;;;;;5109461;28;19916;-67
2023/04/13 13:36:55;;;;;;;;;;;12.70;90.70;;;;;;5110109;28;19919;-67
2023/04/13 13:39:22;;;;;;;;;;;12.80;90.30;;;;;;5108973;28;20019;-67
2023/04/13 13:41:48;;;;;;;;;;;12.90;90.50;;;;;;5110067;28;20518;-67
2023/04/13 13:44:14;;;;;;;;;;;13.00;90.40;;;;;;5110223;28;19911;-68
2023/04/13 13:46:40;;;;;;;;;;;13.10;90.30;;;;;;5107587;28;19916;-67
2023/04/13 13:49:05;;;;;;;;;;;13.10;90.20;;;;;;5108652;28;20498;-67
2023/04/13 13:51:31;;;;;;;;;;;13.10;90.30;;;;;;5110057;28;19943;-67
2023/04/13 13:53:57;;;;;;;;;;;13.10;90.40;;;;;;5109406;27;20326;-67
2023/04/13 13:56:22;;;;;;;;;;;13.10;90.30;;;;;;5109788;28;20040;-67
2023/04/13 13:58:48;;;;;;;;;;;13.00;90.30;;;;;;5106700;28;19920;-67
2023/04/13 14:01:15;;;;;;;;;;;13.00;90.60;;;;;;5107407;28;19918;-67
2023/04/13 14:03:41;;;;;;;;;;;13.00;90.10;;;;;;5109163;28;19916;-67
2023/04/13 14:06:07;;;;;;;;;;;13.10;89.50;;;;;;5109592;28;19915;-67
2023/04/13 14:08:32;;;;;;;;;;;13.20;88.60;;;;;;5109849;28;19908;-67
2023/04/13 14:10:59;;;;;;;;;;;13.30;90.10;;;;;;5110006;28;20469;-67
2023/04/13 14:13:25;;;;;;;;;;;13.30;90.10;;;;;;5109645;28;19923;-67
2023/04/13 14:15:51;;;;;;;;;;;13.30;90.00;;;;;;5109094;28;19984;-67
2023/04/13 14:18:16;;;;;;;;;;;13.40;90.00;;;;;;5109507;28;19955;-67
2023/04/13 14:20:42;;;;;;;;;;;13.50;90.00;;;;;;5109384;28;19965;-67
2023/04/13 14:23:07;;;;;;;;;;;13.50;89.20;;;;;;5109833;28;19947;-67
2023/04/13 14:25:33;;;;;;;;;;;13.60;89.30;;;;;;5109784;28;20342;-67